Íslenskir flugvellir

Veldu flugvelli í þeirri röð sem þeir eiga að birtast og styddu á hnappinn

Uppfært síðast 15.04.2021 - kl. 23:56

SIGMET síðustu 6 klst.

BIRD SIGMET A03 VALID 152350/160350 BIRK- BIRD REYKJAVIK CTA SEV MTW OBS WI N6630 W01150 - N6430 W01420 - N6440 W02020 - N6650 W02140 - N6630 W01150 FL300/410 STNR NC
BIRD SIGMET A02 VALID 152100/152350 BIRK- BIRD REYKJAVIK CTA SEV MTW OBS WI N6630 W01320 - N6430 W01440 - N6440 W02050 - N6630 W02310 - N6630 W01320 FL300/410 STNR NC
BIRD SIGMET A01 VALID 151825/152100 BIRK- BIRD REYKJAVIK CTA SEV MTW OBS AT 1625Z WI N6610 W01340 - N6430 W01440 - N6440 W02050 - N6620 W02040 - N6610 W01340 FL300/410 STNR NC

Egilsstaðir

METAR síðustu 3 klst

TímiSkeyti
2021-04-16 00.00METAR BIEG 160000Z 17025KT 9999 FEW048 SCT060 BKN180 11/04 Q1001
2021-04-15 23.00METAR BIEG 152300Z 18027KT 9999 FEW048 SCT060 BKN180 11/04 Q1001
2021-04-15 22.00METAR BIEG 152200Z 17025G35KT 9999 SCT045 BKN180 10/03 Q1001
2021-04-15 21.00METAR BIEG 152100Z 16024G35KT 9999 SCT047 BKN180 10/03 Q1002

TAF

TAFBIEG2021-04-15 22.53Z16000017028G40KT 9999 SCT040 TX10/1600Z TN02/1700Z BECMG 1615/1617 18018G28KT BECMG 1619/1621 20012KT

Allur vindur er réttvísandi bæði í Metar og frá sjálfvirkum veðurstöðvum




Aðrir tengdir vefir



Þetta vefsvæði byggir á Eplica